KHZX

Isedor Iverson Airport

Mc Gregor, Minnesota, USA
METAR KHZX 200115Z AUTO 26006KT 10SM CLR 04/M02 A2952 RMK AO2
Observed Flight Rules
Jan-20 @ 01:15 UTC (6 minutes ago) Visual Flight Rules
Wind Visibility Clouds
260° at 6 knots 10 miles
  • Clear skies
Temperatures Readings
Current 4°C / 39°F
Dewpoint -2°C / 28°F
Humidity 65%
Altimeter 29.52" Hg
Pressure 1000 hPa
Elevation 374
METAR KHZX 200115Z AUTO 26006KT 10SM CLR 04/M02 A2952 RMK AO2
Observed Flight Rules
Jan-20 @ 01:15 UTC
(6 minutes ago)
VFR
Wind Visibility
260° at 6 knots 10 miles
Clouds
  • Clear skies
Temperature Dewpoint
4°C / 39°F -2°C / 28°F
Humidity Altimeter Pressure
65% 29.52" Hg 1000 hPa